Danforth, South Dakota
Current Conditions -  °F | °C
As of 1:55 PM on Wednesday 26 Nov 2014 (Local Time) from KHON Reporting Station
Clear Clear  
Wind Chill: -2°   Ceiling: Unl
Heat Index: 13°   Visibility: 10mi
Dew Point:   Wind: 13mph
Humidity: 67%   Direction: 350°N
Pressure: 30.36"   Gusts: NA
Location:  44.3714°N, 98.681°W
Report Text: KHON 261955Z AUTO 35011KT 10SM CLR M11/M16 A3036 RMK AO2 SLP301 T11061156
Loading
Personal Weather Stations






























Interactive Weather Map New forecast layout! Learn more

10-Day Weather Forecast

Advertisements
Track Severe Weather on mobile